Time;durP1;ratioP1;P1;durP2;ratioP2;P2;SDS_P1;SDS_P2;PMS_P1;PMS_P2;Temp;Humidity;BMP_temperature;BMP_pressure;BME280_temperature;BME280_humidity;BME280_pressure;Samples;Min_cycle;Max_cycle;Signal;HPM_P1;HPM_P2
2021/12/18 00:01:33;;;;;;;8.82;3.80;;;;;;;0.21;97.85;99952.97;4499548;31;20187;-72
2021/12/18 00:04:01;;;;;;;9.45;4.20;;;;;;;0.16;97.82;99955.69;4499425;31;20122;-72
2021/12/18 00:06:29;;;;;;;9.88;3.62;;;;;;;0.12;98.03;99954.06;4499490;31;20088;-72
2021/12/18 00:08:58;;;;;;;12.20;4.05;;;;;;;0.11;97.92;99960.12;4499392;31;20179;-72
2021/12/18 00:11:26;;;;;;;7.05;3.62;;;;;;;0.08;98.19;99966.19;4499160;31;20183;-72
2021/12/18 00:13:54;;;;;;;8.27;4.32;;;;;;;0.11;98.77;99960.97;4499421;31;20110;-72
2021/12/18 00:16:22;;;;;;;10.68;3.60;;;;;;;0.15;98.92;99972.88;4499304;31;20464;-71
2021/12/18 00:18:51;;;;;;;11.48;5.47;;;;;;;0.16;99.41;99964.25;4499524;31;20101;-72
2021/12/18 00:21:20;;;;;;;13.20;4.82;;;;;;;0.27;99.23;99981.16;4499872;31;20092;-72
2021/12/18 00:23:48;;;;;;;7.78;3.45;;;;;;;0.26;99.73;99970.00;4486917;31;20124;-72
2021/12/18 00:26:15;;;;;;;5.93;2.62;;;;;;;0.32;99.78;99979.31;4486015;31;20116;-72
2021/12/18 00:28:42;;;;;;;9.27;4.70;;;;;;;0.32;99.87;99979.31;4490889;31;20480;-72
2021/12/18 00:31:10;;;;;;;8.27;3.50;;;;;;;0.33;99.85;99975.81;4501776;31;20112;-72
2021/12/18 00:33:38;;;;;;;9.75;5.03;;;;;;;0.36;99.74;99988.63;4501530;31;20088;-72
2021/12/18 00:36:05;;;;;;;6.65;3.03;;;;;;;0.40;99.62;99994.56;4501541;31;20108;-72
2021/12/18 00:38:32;;;;;;;7.22;3.65;;;;;;;0.41;99.55;99991.94;4501695;31;20504;-71
2021/12/18 00:41:13;;;;;;;8.68;3.50;;;;;;;0.36;99.76;99998.94;4501578;31;20512;-72
2021/12/18 00:44:01;;;;;;;6.35;3.33;;;;;;;0.34;99.84;99987.84;4501627;31;20122;-72
2021/12/18 00:46:35;;;;;;;6.70;3.22;;;;;;;0.32;100.00;99999.94;4501543;31;20525;-72
2021/12/18 00:49:06;;;;;;;11.05;3.22;;;;;;;0.41;99.90;100001.38;4501604;31;20072;-72
2021/12/18 00:51:35;;;;;;;9.35;3.65;;;;;;;0.39;99.99;99998.00;4501540;31;20081;-72
2021/12/18 00:54:02;;;;;;;13.32;4.43;;;;;;;0.36;100.00;99991.19;4501289;31;20083;-72
2021/12/18 00:56:30;;;;;;;8.20;3.70;;;;;;;0.39;100.00;99995.44;4501362;31;20118;-71
2021/12/18 00:58:57;;;;;;;7.28;2.65;;;;;;;0.41;100.00;100001.38;4501123;31;20115;-72
2021/12/18 01:01:27;;;;;;;7.87;3.72;;;;;;;0.38;100.00;99994.59;4501208;31;20087;-71
2021/12/18 01:03:54;;;;;;;11.95;4.55;;;;;;;0.39;100.00;100000.59;4501270;31;20141;-72
2021/12/18 01:06:23;;;;;;;9.40;4.40;;;;;;;0.38;100.00;99984.28;4501297;31;20092;-72
2021/12/18 01:08:52;;;;;;;10.55;4.35;;;;;;;0.39;100.00;99991.13;4501324;31;20445;-72
2021/12/18 01:16:41;;;;;;;5.93;2.75;;;;;;;0.38;99.81;99989.44;4501329;31;20076;-72
2021/12/18 01:24:31;;;;;;;14.82;3.15;;;;;;;0.48;99.39;99996.00;4485735;31;20156;-72
2021/12/18 01:26:58;;;;;;;8.02;3.00;;;;;;;0.54;99.32;100010.47;4485286;31;20123;-71
2021/12/18 01:29:25;;;;;;;13.88;4.15;;;;;;;0.56;99.19;100007.84;4495130;31;20445;-71
2021/12/18 01:31:53;;;;;;;9.98;3.60;;;;;;;0.58;99.06;100011.25;4500792;31;20414;-71
2021/12/18 01:34:20;;;;;;;10.23;4.87;;;;;;;0.52;99.28;100015.66;4501270;31;20561;-72
2021/12/18 01:36:47;;;;;;;9.05;3.65;;;;;;;0.59;99.05;100034.41;4501095;31;20563;-72
2021/12/18 01:39:14;;;;;;;8.32;3.70;;;;;;;0.64;98.82;100029.12;4501194;31;20496;-72
2021/12/18 01:42:23;;;;;;;10.75;4.15;;;;;;;0.62;98.76;100034.31;4501123;31;20096;-72
2021/12/18 01:53:11;;;;;;;15.07;4.45;;;;;;;0.58;98.53;100027.56;4466918;32;20841;-72
2021/12/18 01:55:41;;;;;;;7.60;4.10;;;;;;;0.60;98.12;100027.50;4467079;32;20108;-72
2021/12/18 01:58:08;;;;;;;7.65;3.90;;;;;;;0.53;98.39;100022.53;4466956;32;20681;-72
2021/12/18 02:00:38;;;;;;;11.65;3.50;;;;;;;0.48;98.42;100039.84;4467251;32;20600;-72
2021/12/18 02:03:06;;;;;;;7.18;2.92;;;;;;;0.47;98.30;100020.13;4467334;32;20156;-72
2021/12/18 02:05:34;;;;;;;13.90;3.42;;;;;;;0.57;97.53;100025.03;4454270;32;20130;-72
2021/12/18 02:08:01;;;;;;;15.73;3.87;;;;;;;0.57;97.25;100025.03;4466797;32;20315;-72
2021/12/18 02:10:31;;;;;;;12.10;3.80;;;;;;;0.59;97.09;100038.72;4467351;32;20113;-72
2021/12/18 02:13:06;;;;;;;9.00;3.95;;;;;;;0.59;96.91;100030.97;4466796;32;20116;-72
2021/12/18 02:21:13;;;;;;;6.75;2.97;;;;;;;0.74;95.99;100058.06;4466752;32;20089;-72
2021/12/18 02:23:40;;;;;;;;;;;;;;;0.73;95.84;100054.66;4453306;32;20462;-72
2021/12/18 02:26:08;;;;;;;10.52;4.43;;;;;;;0.67;96.18;100054.81;4452159;32;20061;-72
2021/12/18 02:28:35;;;;;;;6.55;3.08;;;;;;;0.59;96.44;100054.19;4487845;31;20126;-72
2021/12/18 02:31:04;;;;;;;8.02;3.40;;;;;;;0.66;96.17;100050.53;4500830;31;20096;-72
2021/12/18 02:33:31;;;;;;;9.25;4.10;;;;;;;0.63;96.25;100051.47;4500504;31;20107;-72
2021/12/18 02:36:00;;;;;;;5.22;2.85;;;;;;;0.58;96.41;100045.59;4500730;31;20108;-72
2021/12/18 02:38:45;;;;;;;5.18;2.87;;;;;;;0.62;96.20;100048.94;4500739;31;20485;-71
2021/12/18 02:44:04;;;;;;;6.07;2.83;;;;;;;0.60;96.17;100051.56;4465565;32;20299;-72
2021/12/18 02:46:31;;;;;;;12.15;2.97;;;;;;;0.66;95.88;100048.81;4466558;32;20191;-72
2021/12/18 02:49:06;;;;;;;5.60;3.17;;;;;;;0.72;95.63;100065.00;4466663;32;20203;-72
2021/12/18 02:51:34;;;;;;;9.68;3.75;;;;;;;0.74;95.11;100069.22;4466731;32;20088;-72
2021/12/18 02:54:01;;;;;;;5.15;2.85;;;;;;;0.81;94.73;100077.66;4466378;32;20101;-72
2021/12/18 02:56:28;;;;;;;8.48;3.05;;;;;;;0.81;94.61;100070.75;4466421;32;20822;-72
2021/12/18 02:59:00;;;;;;;6.03;2.37;;;;;;;0.83;94.57;100073.28;4466398;32;20119;-72
2021/12/18 03:01:27;;;;;;;7.35;2.85;;;;;;;0.82;94.46;100069.03;4466449;32;20394;-72
2021/12/18 03:03:57;;;;;;;7.28;3.12;;;;;;;0.90;94.13;100051.59;4466382;32;20486;-72
2021/12/18 03:06:37;;;;;;;9.13;3.12;;;;;;;0.85;94.15;100051.72;4466647;32;20128;-72
2021/12/18 03:25:43;;;;;;;8.10;3.70;;;;;;;0.82;93.88;100076.78;4435546;32;20144;-71
2021/12/18 03:28:10;;;;;;;10.52;2.70;;;;;;;0.73;94.12;100085.59;4436494;32;20144;-72
2021/12/18 03:30:41;;;;;;;8.73;2.85;;;;;;;0.76;94.09;100089.81;4450652;32;20123;-72
2021/12/18 03:33:08;;;;;;;9.23;3.83;;;;;;;0.73;94.08;100087.31;4450452;32;20093;-72
2021/12/18 03:35:35;;;;;;;5.50;3.30;;;;;;;0.64;94.44;100093.59;4450436;32;20117;-72
2021/12/18 03:38:03;;;;;;;11.82;3.12;;;;;;;0.65;94.46;100098.72;4450238;32;20443;-72
2021/12/18 03:40:30;;;;;;;6.72;2.78;;;;;;;0.64;94.57;100096.19;4450432;32;20132;-71
2021/12/18 03:42:58;;;;;;;7.93;3.35;;;;;;;0.66;94.54;100099.53;4450413;32;20120;-72
2021/12/18 03:45:25;;;;;;;7.95;3.30;;;;;;;0.60;94.87;100091.97;4450513;32;20157;-71
2021/12/18 03:47:52;;;;;;;8.05;3.62;;;;;;;0.56;95.00;100101.53;4450186;32;20384;-72
2021/12/18 03:50:20;;;;;;;7.28;2.67;;;;;;;0.53;95.22;100093.88;4450366;32;20131;-72
2021/12/18 03:52:49;;;;;;;9.73;3.37;;;;;;;0.49;95.43;100093.09;4437336;32;20540;-72
2021/12/18 03:55:16;;;;;;;9.02;3.45;;;;;;;0.51;95.44;100087.91;4450691;32;20113;-72
2021/12/18 03:57:44;;;;;;;9.38;2.83;;;;;;;0.48;95.57;100096.56;4499096;31;20130;-72
2021/12/18 04:00:14;;;;;;;6.10;2.62;;;;;;;0.52;95.30;100094.75;4501821;31;20159;-71
2021/12/18 04:02:41;;;;;;;8.90;3.00;;;;;;;0.57;95.01;100098.06;4501801;31;20441;-72
2021/12/18 04:05:10;;;;;;;9.02;3.58;;;;;;;0.51;95.13;100113.69;4501843;31;20560;-72
2021/12/18 04:07:43;;;;;;;6.30;2.95;;;;;;;0.46;95.36;100124.13;4501592;31;20096;-72
2021/12/18 04:10:13;;;;;;;8.32;3.78;;;;;;;0.56;94.80;100116.16;4500745;31;20155;-73
2021/12/18 04:12:40;;;;;;;7.45;4.20;;;;;;;0.52;94.82;100100.75;4501589;31;20116;-72
2021/12/18 04:15:08;;;;;;;12.27;3.83;;;;;;;0.53;94.69;100092.16;4502067;31;20118;-72
2021/12/18 04:17:35;;;;;;;9.52;3.70;;;;;;;0.48;94.86;100099.13;4501705;31;20480;-72
2021/12/18 04:20:04;;;;;;;8.02;3.00;;;;;;;0.43;95.16;100085.53;4501838;31;20158;-72
2021/12/18 04:22:31;;;;;;;5.25;2.58;;;;;;;0.48;94.77;100075.94;4495324;31;20118;-72
2021/12/18 04:24:58;;;;;;;7.43;2.92;;;;;;;0.47;94.78;100089.72;4485977;31;20120;-71
2021/12/18 04:27:25;;;;;;;8.32;3.15;;;;;;;0.46;94.79;100084.63;4485818;31;20787;-72
2021/12/18 04:29:52;;;;;;;10.35;3.95;;;;;;;0.46;94.54;100090.59;4498716;31;20108;-72
2021/12/18 04:32:20;;;;;;;6.70;2.62;;;;;;;0.48;94.42;100106.88;4501395;31;20088;-72
2021/12/18 04:34:47;;;;;;;9.90;3.47;;;;;;;0.50;94.23;100110.28;4501557;31;20096;-72
2021/12/18 04:37:14;;;;;;;7.05;2.83;;;;;;;0.44;94.50;100109.56;4501505;31;20142;-72
2021/12/18 04:39:41;;;;;;;6.87;2.92;;;;;;;0.43;94.51;100106.16;4501707;31;20080;-72
2021/12/18 04:42:09;;;;;;;10.05;4.00;;;;;;;0.44;94.26;100113.00;4501600;31;20097;-73
2021/12/18 04:44:36;;;;;;;11.55;4.07;;;;;;;0.43;94.22;100113.91;4501438;31;20122;-71
2021/12/18 04:47:03;;;;;;;7.28;2.92;;;;;;;0.44;93.97;100120.75;4501585;31;20100;-71
2021/12/18 04:49:30;;;;;;;14.05;3.00;;;;;;;0.46;93.73;100121.53;4501474;31;20093;-72
2021/12/18 04:51:58;;;;;;;6.25;3.37;;;;;;;0.45;93.83;100124.16;4501675;31;20373;-72
2021/12/18 04:54:25;;;;;;;8.48;2.87;;;;;;;0.35;94.21;100144.19;4501233;31;20478;-71
2021/12/18 04:56:52;;;;;;;4.35;2.28;;;;;;;0.34;94.22;100143.31;4501563;31;20115;-71
2021/12/18 04:59:19;;;;;;;5.93;3.22;;;;;;;0.29;94.62;100149.50;4501344;31;20453;-72
2021/12/18 05:01:47;;;;;;;14.93;4.57;;;;;;;0.20;95.23;100160.00;4501427;31;20100;-72
2021/12/18 05:04:14;;;;;;;22.00;4.45;;;;;;;0.16;95.60;100154.09;4501653;31;20115;-72
2021/12/18 05:06:45;;;;;;;8.35;3.45;;;;;;;-0.03;96.69;100153.66;4500905;31;20083;-72
2021/12/18 05:09:14;;;;;;;9.60;3.70;;;;;;;-0.08;97.27;100160.66;4501172;31;20081;-72
2021/12/18 05:11:42;;;;;;;8.40;3.37;;;;;;;-0.20;97.92;100156.63;4501554;31;20134;-72
2021/12/18 05:14:10;;;;;;;8.30;3.22;;;;;;;-0.26;98.31;100149.06;4501163;31;20475;-72
2021/12/18 05:16:37;;;;;;;9.15;3.35;;;;;;;-0.28;98.80;100168.84;4501523;31;20537;-72
2021/12/18 05:19:04;;;;;;;9.85;3.22;;;;;;;-0.26;98.79;100165.38;4501313;31;20484;-72
2021/12/18 05:21:32;;;;;;;12.13;3.15;;;;;;;-0.29;98.86;100173.13;4501358;31;20490;-72
2021/12/18 05:23:59;;;;;;;5.30;3.22;;;;;;;-0.31;98.84;100179.22;4485775;31;20128;-72
2021/12/18 05:26:26;;;;;;;10.27;3.40;;;;;;;-0.27;98.56;100176.53;4485669;31;20093;-72
2021/12/18 05:28:54;;;;;;;9.25;3.37;;;;;;;-0.31;98.62;100174.91;4491386;31;20495;-72
2021/12/18 05:31:21;;;;;;;10.25;3.92;;;;;;;-0.31;98.53;100172.34;4501317;31;20081;-72
2021/12/18 05:33:52;;;;;;;8.52;3.30;;;;;;;-0.24;98.02;100175.63;4501189;31;20091;-72
2021/12/18 05:36:51;;;;;;;9.88;2.60;;;;;;;-0.26;98.08;100177.38;4501168;31;20088;-72
2021/12/18 05:39:18;;;;;;;5.20;2.37;;;;;;;-0.31;98.25;100177.47;4500904;31;20453;-72
2021/12/18 05:41:47;;;;;;;5.07;2.58;;;;;;;-0.26;97.91;100173.09;4501159;31;20097;-72
2021/12/18 05:44:15;;;;;;;4.70;2.70;;;;;;;-0.28;97.88;100174.84;4501179;31;20085;-72
2021/12/18 05:46:42;;;;;;;6.25;2.83;;;;;;;-0.27;97.98;100178.25;4501343;31;20096;-72
2021/12/18 05:49:09;;;;;;;8.45;3.10;;;;;;;-0.26;97.67;100161.94;4501080;31;20100;-72
2021/12/18 05:51:37;;;;;;;8.07;2.90;;;;;;;-0.32;97.92;100175.78;4499787;31;20111;-72
2021/12/18 05:54:05;;;;;;;7.68;2.85;;;;;;;-0.32;97.88;100177.50;4501082;31;20115;-72
2021/12/18 05:56:33;;;;;;;7.35;3.42;;;;;;;-0.29;97.62;100175.72;4501264;31;20477;-72
2021/12/18 05:59:00;;;;;;;6.40;2.78;;;;;;;-0.29;97.28;100178.28;4500654;31;20146;-72
2021/12/18 06:01:27;;;;;;;8.07;3.30;;;;;;;-0.19;96.50;100187.50;4501090;31;20170;-72
2021/12/18 06:03:55;;;;;;;10.07;3.67;;;;;;;-0.17;96.10;100191.78;4500931;31;20120;-72
2021/12/18 06:06:23;;;;;;;9.10;3.00;;;;;;;-0.17;95.82;100202.09;4501117;31;20096;-72
2021/12/18 06:08:51;;;;;;;14.38;4.55;;;;;;;-0.11;94.99;100202.78;4500901;31;20095;-72
2021/12/18 06:11:21;;;;;;;9.35;3.35;;;;;;;-0.06;94.41;100197.53;4500808;31;20118;-72
2021/12/18 06:13:50;;;;;;;6.68;3.35;;;;;;;-0.01;93.92;100195.72;4500939;31;20496;-72
2021/12/18 06:16:19;;;;;;;10.13;4.37;;;;;;;-0.01;93.91;100193.16;4501154;31;20107;-72
2021/12/18 06:18:49;;;;;;;7.65;3.47;;;;;;;-0.07;94.38;100203.59;4499691;31;20155;-72
2021/12/18 06:21:17;;;;;;;9.38;2.97;;;;;;;-0.01;93.82;100208.59;4501150;31;20460;-72
2021/12/18 06:23:47;;;;;;;8.43;2.80;;;;;;;-0.11;94.48;100212.25;4486535;31;20446;-72
2021/12/18 06:26:15;;;;;;;11.63;4.43;;;;;;;-0.15;94.64;100219.22;4485302;31;20096;-72
2021/12/18 06:28:42;;;;;;;12.88;3.92;;;;;;;-0.17;94.79;100217.53;4489733;31;20126;-72
2021/12/18 06:31:29;;;;;;;10.65;4.10;;;;;;;-0.26;95.16;100219.44;4500981;31;20092;-72
2021/12/18 06:33:57;;;;;;;10.35;3.72;;;;;;;-0.30;95.60;100216.94;4500623;31;20492;-72
2021/12/18 06:36:25;;;;;;;9.82;4.18;;;;;;;-0.32;95.59;100214.41;4500709;31;20140;-72
2021/12/18 06:38:53;;;;;;;7.65;3.85;;;;;;;-0.36;95.85;100213.63;4500729;31;20092;-72
2021/12/18 06:41:20;;;;;;;9.27;5.20;;;;;;;-0.38;96.25;100225.69;4500667;31;20115;-72
2021/12/18 06:43:47;;;;;;;9.48;4.35;;;;;;;-0.46;96.47;100227.56;4500827;31;20103;-72
2021/12/18 06:46:15;;;;;;;13.70;4.40;;;;;;;-0.37;96.47;100236.84;4500987;31;20096;-72
2021/12/18 06:48:42;;;;;;;10.55;4.03;;;;;;;-0.41;96.65;100245.50;4500625;31;20101;-72
2021/12/18 06:51:09;;;;;;;8.10;4.00;;;;;;;-0.45;97.01;100254.19;4500500;31;20123;-72
2021/12/18 06:53:36;;;;;;;12.77;4.12;;;;;;;-0.42;96.95;100254.94;4500474;31;20100;-72
2021/12/18 06:56:04;;;;;;;10.48;3.53;;;;;;;-0.40;97.07;100265.22;4500816;31;20411;-72
2021/12/18 06:58:32;;;;;;;13.80;4.68;;;;;;;-0.39;97.34;100264.34;4500413;31;20080;-72
2021/12/18 07:00:59;;;;;;;11.70;3.97;;;;;;;-0.25;97.08;100276.94;4500371;31;20092;-72
2021/12/18 07:03:27;;;;;;;9.65;4.45;;;;;;;-0.19;96.73;100267.34;4500520;31;20092;-72
2021/12/18 07:05:54;;;;;;;9.85;3.97;;;;;;;-0.14;96.42;100254.37;4499052;31;20138;-72
2021/12/18 07:08:21;;;;;;;8.27;4.03;;;;;;;0.01;95.95;100268.66;4499332;31;20105;-72
2021/12/18 07:10:48;;;;;;;12.93;3.40;;;;;;;-0.09;95.96;100265.44;4500469;31;20430;-72
2021/12/18 07:13:15;;;;;;;10.98;3.65;;;;;;;0.05;95.54;100264.31;4500352;31;20578;-72
2021/12/18 07:15:43;;;;;;;10.15;4.43;;;;;;;0.18;94.90;100260.53;4500253;31;20131;-72
2021/12/18 07:18:10;;;;;;;11.02;3.58;;;;;;;0.14;94.85;100259.78;4500199;31;20096;-72
2021/12/18 07:20:37;;;;;;;10.07;3.80;;;;;;;0.25;94.21;100258.69;4500153;31;20163;-72
2021/12/18 07:23:05;;;;;;;6.78;3.00;;;;;;;0.16;94.48;100258.00;4490024;31;20099;-72
2021/12/18 07:25:32;;;;;;;7.75;4.22;;;;;;;0.24;94.44;100254.41;4484364;31;20123;-72
2021/12/18 07:27:59;;;;;;;10.93;3.35;;;;;;;0.21;94.42;100251.91;4484809;31;20127;-72
2021/12/18 07:30:27;;;;;;;6.93;3.70;;;;;;;0.19;94.52;100249.38;4500549;31;20096;-72
2021/12/18 07:32:54;;;;;;;5.40;3.17;;;;;;;0.28;94.47;100253.47;4502024;31;20091;-72
2021/12/18 07:35:21;;;;;;;14.02;4.32;;;;;;;0.24;94.61;100254.41;4501941;31;20088;-72
2021/12/18 07:37:48;;;;;;;9.18;4.07;;;;;;;0.32;94.31;100258.53;4502002;31;20100;-72
2021/12/18 07:40:16;;;;;;;8.32;4.07;;;;;;;0.27;94.66;100262.06;4500551;31;20141;-72
2021/12/18 07:42:43;;;;;;;11.60;3.90;;;;;;;0.35;94.55;100267.91;4502022;31;20104;-72
2021/12/18 07:45:11;;;;;;;14.15;4.00;;;;;;;0.41;94.24;100265.19;4501899;31;20092;-72
2021/12/18 07:47:39;;;;;;;7.00;3.28;;;;;;;0.48;93.95;100266.72;4502338;31;20092;-72
2021/12/18 07:50:12;;;;;;;11.63;4.80;;;;;;;0.55;93.64;100277.75;4501904;31;20075;-72
2021/12/18 07:52:39;;;;;;;7.30;3.63;;;;;;;0.59;93.38;100286.25;4501999;31;20088;-72
2021/12/18 07:55:07;;;;;;;5.03;2.95;;;;;;;0.70;92.64;100276.53;4501921;31;20092;-72
2021/12/18 07:57:35;;;;;;;8.38;3.90;;;;;;;0.66;92.59;100278.34;4501916;31;20114;-72
2021/12/18 08:00:09;;;;;;;8.10;3.85;;;;;;;0.79;91.95;100289.22;4501738;31;20122;-72
2021/12/18 08:02:36;;;;;;;9.60;3.33;;;;;;;0.82;91.72;100290.88;4500476;31;20109;-72
2021/12/18 08:05:04;;;;;;;6.60;2.97;;;;;;;0.87;91.55;100292.44;4501802;31;20524;-72
2021/12/18 08:07:31;;;;;;;10.35;3.72;;;;;;;0.96;91.04;100282.78;4501836;31;20178;-72
2021/12/18 08:09:58;;;;;;;6.47;3.53;;;;;;;1.00;90.52;100305.91;4501714;31;20370;-72
2021/12/18 08:12:26;;;;;;;15.02;4.93;;;;;;;1.02;90.50;100280.91;4501897;31;20119;-72
2021/12/18 08:14:55;;;;;;;10.68;4.50;;;;;;;1.02;90.62;100269.72;4501720;31;20536;-72
2021/12/18 08:17:23;;;;;;;11.68;4.60;;;;;;;1.06;90.35;100272.19;4500457;31;20148;-72
2021/12/18 08:19:51;;;;;;;15.50;3.80;;;;;;;1.11;89.89;100274.66;4501874;31;20567;-72
2021/12/18 08:22:18;;;;;;;7.03;2.85;;;;;;;1.23;89.97;100274.31;4496553;31;20466;-72
2021/12/18 08:24:45;;;;;;;7.00;3.45;;;;;;;1.24;89.47;100282.91;4485830;32;20103;-72
2021/12/18 08:27:13;;;;;;;7.75;3.40;;;;;;;1.26;89.43;100282.88;4485959;31;20457;-72
2021/12/18 08:29:40;;;;;;;7.05;3.17;;;;;;;1.28;89.67;100281.09;4497001;31;20114;-72
2021/12/18 08:32:07;;;;;;;12.68;3.47;;;;;;;1.30;89.67;100289.66;4501481;31;20100;-72
2021/12/18 08:34:35;;;;;;;8.80;3.28;;;;;;;1.34;89.05;100280.94;4501554;31;20100;-72
2021/12/18 08:37:02;;;;;;;6.95;3.25;;;;;;;1.44;88.47;100284.09;4501511;31;20110;-72
2021/12/18 08:39:29;;;;;;;7.93;3.22;;;;;;;1.43;88.33;100298.75;4501438;31;20122;-72
2021/12/18 08:41:59;;;;;;;10.15;3.78;;;;;;;1.47;88.04;100287.47;4500595;31;20092;-72
2021/12/18 08:44:26;;;;;;;5.90;3.40;;;;;;;1.46;88.18;100283.19;4501532;31;20160;-72
2021/12/18 08:46:53;;;;;;;5.85;3.17;;;;;;;1.50;87.73;100310.63;4501524;31;20083;-72
2021/12/18 08:49:21;;;;;;;11.45;4.70;;;;;;;1.60;87.73;100280.22;4501463;31;20541;-72
2021/12/18 08:51:55;;;;;;;5.30;2.15;;;;;;;1.62;87.27;100277.59;4501539;31;20088;-72
2021/12/18 08:54:23;;;;;;;7.93;3.45;;;;;;;1.78;86.59;100276.28;4500080;31;20096;-72
2021/12/18 08:57:07;;;;;;;;;;;;;;;1.73;86.39;100278.16;4501712;31;20756;-72
2021/12/18 08:59:35;;;;;;;9.02;3.87;;;;;;;1.75;85.34;100276.38;4501291;31;19960;-72
2021/12/18 09:02:02;;;;;;;10.65;4.57;;;;;;;1.73;85.66;100286.75;4501283;31;20096;-72
2021/12/18 09:04:29;;;;;;;13.27;3.22;;;;;;;1.78;85.39;100284.84;4501552;31;20096;-72
2021/12/18 09:06:57;;;;;;;10.32;3.60;;;;;;;1.92;84.79;100279.31;4501389;31;20422;-72
2021/12/18 09:09:24;;;;;;;8.43;3.17;;;;;;;1.97;83.92;100280.91;4501422;31;20096;-72
2021/12/18 09:11:51;;;;;;;5.75;3.35;;;;;;;1.99;83.33;100279.97;4501228;31;20216;-72
2021/12/18 09:14:18;;;;;;;11.02;3.92;;;;;;;2.02;83.06;100271.28;4501409;31;20126;-72
2021/12/18 09:16:46;;;;;;;9.20;3.75;;;;;;;1.99;83.19;100279.97;4501106;31;20561;-72
2021/12/18 09:19:13;;;;;;;10.45;3.83;;;;;;;2.07;82.89;100282.31;4501465;31;20080;-72
2021/12/18 09:21:40;;;;;;;8.30;3.78;;;;;;;2.15;82.36;100274.34;4500202;31;20138;-72
2021/12/18 09:24:07;;;;;;;5.87;2.85;;;;;;;2.15;81.54;100287.25;4485570;31;20119;-72
2021/12/18 09:26:34;;;;;;;10.40;3.40;;;;;;;2.18;81.70;100266.47;4485491;32;20163;-72
2021/12/18 09:29:02;;;;;;;10.02;3.90;;;;;;;2.29;81.44;100270.44;4492556;31;20142;-72
2021/12/18 09:31:34;;;;;;;7.43;2.90;;;;;;;2.42;80.77;100257.13;4501305;31;20691;-72
2021/12/18 09:34:01;;;;;;;6.62;2.75;;;;;;;2.41;80.61;100258.03;4501250;31;20096;-72
2021/12/18 09:36:29;;;;;;;6.20;2.83;;;;;;;2.45;79.90;100269.97;4501049;31;20163;-72
2021/12/18 09:39:01;;;;;;;11.45;3.25;;;;;;;2.44;79.84;100261.34;4501207;31;20076;-72
2021/12/18 09:41:28;;;;;;;7.97;2.50;;;;;;;2.46;79.38;100249.22;4501130;31;20139;-72
2021/12/18 09:43:55;;;;;;;6.57;2.67;;;;;;;2.49;79.43;100250.87;4499923;31;20468;-72
2021/12/18 09:46:23;;;;;;;7.20;2.50;;;;;;;2.60;79.72;100255.69;4501308;31;20114;-72
2021/12/18 09:48:50;;;;;;;9.05;3.65;;;;;;;2.62;78.87;100275.44;4498488;31;76759;-72
2021/12/18 09:51:24;;;;;;;9.55;3.33;;;;;;;2.67;78.58;100268.38;4501225;31;20112;-72
2021/12/18 09:53:52;;;;;;;7.87;2.83;;;;;;;2.55;79.07;100268.78;4500499;31;20119;-72
2021/12/18 09:56:21;;;;;;;5.75;2.50;;;;;;;2.58;79.39;100263.50;4501355;31;20510;-72
2021/12/18 09:58:48;;;;;;;11.88;3.72;;;;;;;2.66;79.10;100276.19;4500836;31;20523;-72
2021/12/18 10:01:16;;;;;;;12.02;3.33;;;;;;;2.77;78.67;100249.97;4500923;31;20114;-72
2021/12/18 10:03:57;;;;;;;7.47;3.42;;;;;;;2.77;78.34;100248.22;4500911;31;20112;-72
2021/12/18 10:06:39;;;;;;;7.53;3.30;;;;;;;2.75;78.46;100254.34;4500985;31;20075;-72
2021/12/18 10:09:21;;;;;;;7.35;3.03;;;;;;;2.82;77.47;100255.84;4501067;31;20072;-72
2021/12/18 10:11:51;;;;;;;10.48;3.55;;;;;;;2.88;76.90;100266.00;4500861;31;20119;-72
2021/12/18 10:14:20;;;;;;;5.45;3.00;;;;;;;2.90;77.56;100259.00;4500970;31;20167;-72
2021/12/18 10:16:50;;;;;;;6.65;3.20;;;;;;;3.13;76.00;100257.37;4499793;31;20114;-72
2021/12/18 10:19:25;;;;;;;5.75;2.40;;;;;;;3.19;75.67;100268.38;4500947;31;20114;-72
2021/12/18 10:22:00;;;;;;;7.07;2.53;;;;;;;3.13;74.66;100257.37;4498529;31;20096;-72
2021/12/18 10:24:28;;;;;;;8.48;3.60;;;;;;;3.02;74.83;100253.41;4485097;31;20108;-72
2021/12/18 10:26:55;;;;;;;6.15;3.22;;;;;;;3.04;74.76;100244.75;4485007;31;20520;-72
2021/12/18 10:29:30;;;;;;;10.68;3.97;;;;;;;3.05;74.27;100264.56;4494471;31;20437;-72
2021/12/18 10:32:17;;;;;;;8.75;2.78;;;;;;;3.04;74.38;100244.75;4499741;31;20207;-72
2021/12/18 10:34:55;;;;;;;4.12;2.42;;;;;;;3.25;73.91;100241.41;4500955;31;20092;-72
2021/12/18 10:37:30;;;;;;;6.93;2.83;;;;;;;3.17;73.67;100251.19;4500581;31;20099;-72
2021/12/18 10:40:05;;;;;;;7.60;3.03;;;;;;;3.18;73.69;100263.25;4500709;31;20764;-72
2021/12/18 10:42:42;;;;;;;5.78;2.12;;;;;;;3.30;73.01;100241.25;4500626;31;20084;-72
2021/12/18 10:45:15;;;;;;;6.80;2.70;;;;;;;3.57;71.68;100221.25;4500582;31;20092;-72
2021/12/18 10:48:08;;;;;;;4.07;2.03;;;;;;;3.63;71.75;100217.59;4500700;31;20578;-72
2021/12/18 10:50:49;;;;;;;4.80;2.92;;;;;;;3.69;71.08;100225.16;4500811;31;20445;-72
2021/12/18 10:53:18;;;;;;;3.22;1.75;;;;;;;3.68;71.16;100206.19;4500689;31;20108;-72
2021/12/18 10:55:53;;;;;;;5.80;2.78;;;;;;;3.77;70.15;100215.34;4500613;31;20515;-72
2021/12/18 10:58:29;;;;;;;7.12;2.17;;;;;;;3.80;70.32;100199.69;4500433;31;20076;-72
2021/12/18 11:01:12;;;;;;;4.22;2.15;;;;;;;3.97;69.80;100203.37;4500663;31;20453;-72
2021/12/18 11:03:46;;;;;;;4.85;2.70;;;;;;;3.78;69.71;100191.09;4500381;31;20115;-72
2021/12/18 11:06:27;;;;;;;6.53;2.75;;;;;;;3.79;69.79;100192.81;4499744;31;20132;-72
2021/12/18 11:09:04;;;;;;;3.53;2.17;;;;;;;3.73;69.13;100203.41;4500498;31;20084;-72
2021/12/18 11:14:15;;;;;;;5.60;2.50;;;;;;;3.70;69.81;100181.03;4500438;31;20406;-72
2021/12/18 11:16:46;;;;;;;2.97;2.03;;;;;;;3.77;69.14;100181.66;4500224;31;20437;-72
2021/12/18 11:19:19;;;;;;;5.32;2.20;;;;;;;3.60;69.54;100177.09;4500547;31;20106;-72
2021/12/18 11:21:48;;;;;;;5.30;2.28;;;;;;;3.72;69.37;100161.09;4498870;31;20373;-72
2021/12/18 11:24:16;;;;;;;5.40;3.10;;;;;;;3.97;68.63;100164.50;4484291;32;20393;-72
2021/12/18 11:26:45;;;;;;;6.32;2.58;;;;;;;4.11;67.82;100161.34;4484443;31;20084;-72
2021/12/18 11:29:19;;;;;;;4.82;2.37;;;;;;;4.19;66.72;100185.22;4492687;31;20092;-72
2021/12/18 11:31:47;;;;;;;8.95;2.53;;;;;;;4.12;66.69;100152.63;4500216;31;20080;-72
2021/12/18 11:34:15;;;;;;;6.50;2.75;;;;;;;4.03;66.80;100112.38;4499756;31;20127;-72
2021/12/18 11:36:44;;;;;;;5.97;2.20;;;;;;;3.98;66.76;100161.84;4500118;31;20152;-72
2021/12/18 11:39:13;;;;;;;5.87;2.05;;;;;;;3.96;66.77;100152.41;4498876;31;20084;-72
2021/12/18 11:41:48;;;;;;;9.23;2.30;;;;;;;3.95;67.21;100141.22;4498788;31;20494;-72
2021/12/18 11:44:35;;;;;;;5.75;2.42;;;;;;;4.06;67.47;100143.38;4499927;31;20111;-72
2021/12/18 11:47:25;;;;;;;4.20;1.87;;;;;;;4.13;66.93;100133.59;4500298;31;20106;-72
2021/12/18 11:49:56;;;;;;;3.72;2.22;;;;;;;3.95;66.54;100141.22;4500130;31;20080;-72
2021/12/18 11:52:23;;;;;;;7.45;2.28;;;;;;;3.92;67.41;100136.13;4499936;31;20149;-72
2021/12/18 11:54:56;;;;;;;4.18;2.30;;;;;;;3.93;67.21;100135.22;4499324;31;20540;-72
2021/12/18 11:57:42;;;;;;;7.43;3.50;;;;;;;3.81;66.71;100149.50;4499784;31;20095;-72
2021/12/18 12:00:19;;;;;;;4.10;2.12;;;;;;;3.85;67.04;100129.50;4499383;31;20096;-72
2021/12/18 12:02:53;;;;;;;6.03;2.30;;;;;;;3.80;67.08;100119.34;4499854;31;20084;-72
2021/12/18 12:05:32;;;;;;;4.85;2.37;;;;;;;3.69;68.01;100139.63;4499739;31;20469;-72
2021/12/18 12:08:20;;;;;;;4.97;2.67;;;;;;;3.85;68.28;100122.56;4498061;31;20529;-72
2021/12/18 12:11:15;;;;;;;8.98;2.85;;;;;;;3.86;67.71;100121.69;4499564;31;20075;-72
2021/12/18 12:13:53;;;;;;;6.25;2.33;;;;;;;3.96;67.97;100124.72;4499502;31;20076;-72
2021/12/18 12:16:47;;;;;;;4.30;2.37;;;;;;;3.97;67.89;100126.44;4500041;31;20088;-72
2021/12/18 12:19:19;;;;;;;7.07;2.67;;;;;;;4.03;67.82;100108.03;4436857;32;20132;-72
2021/12/18 12:21:51;;;;;;;5.40;2.70;;;;;;;3.96;67.32;100129.09;4435329;32;20112;-72
2021/12/18 12:24:20;;;;;;;5.15;3.33;;;;;;;3.84;67.88;100130.41;4421489;32;20138;-72
2021/12/18 12:26:49;;;;;;;4.65;2.87;;;;;;;3.80;67.65;100139.19;4421269;32;20101;-72
2021/12/18 12:29:18;;;;;;;9.30;2.25;;;;;;;3.91;67.41;100126.69;4429688;32;20127;-72
2021/12/18 12:31:58;;;;;;;7.20;2.85;;;;;;;3.82;68.07;100125.28;4436684;32;20164;-72